Portada
METAR-TAF:

METAR-TAF

Aeroports :

Castres, França

latitud: 43-33-25N, longitud: 2-17-21E, altitud: 239 m

Observació

L'informe es va fer fa 34 minuts, a les 19:30 UTC
Vent 13 kt del Nord/Nord-Oest
Temperatura 21°C
Humitat 69%
Pressió 1023 hPa
Visibilitat 10 km o més
sense núvols per sota de 1500 mi sense presència de cumulonimbus.

METAR: LFCK 211930Z AUTO 33013KT CAVOK 21/15 Q1023 NOSIG

Hora: 22:04 (20:04 UTC)

Pronòstic

L'informe es va fer fa 3 hores i 4 minuts, a les 17:00 UTC
Pronòstic vàlid del 21 a les 18 UTC al 22 a les 03 UTC
Vent 12 kt del Oest/Nord-Oest
Visibilitat 10 km o més
Escasses núvols a una alçada de 4500 ft

TAF: LFCK 211700Z 2118/2203 30012KT 9999 FEW045

Observacions i pronòstics meteorològics de més de 4000 aeroports (METAR i TAF).

Les estacions disponibles són els punts grocs i vermells al mapa.

Posi el ratolí al punt desitjat per veure el nom de l'estació.

Feu clic per veure les observacions i els pronòstics meteorològics.

Per canviar el mapa: feu clic els botons verds amb una creu de color negre per apropar; al botó verd amb un guió per allunyar la imatge; o en les fletxes verdes per a mapes adjacents.


METAR-TAF: